Time;durP1;ratioP1;P1;durP2;ratioP2;P2;SDS_P1;SDS_P2;PMS_P1;PMS_P2;Temp;Humidity;BMP_temperature;BMP_pressure;BME280_temperature;BME280_humidity;BME280_pressure;Samples;Min_cycle;Max_cycle;Signal;HPM_P1;HPM_P2
2023/12/11 00:01:07;;;;;;;0.97;0.97;;;;;;;3.94;100.00;99616.28;5073598;28;20204;-74
2023/12/11 00:03:34;;;;;;;0.90;0.90;;;;;;;3.95;100.00;99618.00;5073258;28;20208;-73
2023/12/11 00:06:01;;;;;;;0.90;0.90;;;;;;;3.96;100.00;99632.38;5074456;28;20695;-74
2023/12/11 00:08:27;;;;;;;0.87;0.87;;;;;;;3.93;100.00;99642.50;5073305;28;20196;-73
2023/12/11 00:10:56;;;;;;;1.30;1.30;;;;;;;3.85;100.00;99639.13;5073247;28;20200;-73
2023/12/11 00:13:22;;;;;;;1.00;1.00;;;;;;;3.91;100.00;99650.97;5073224;28;20196;-74
2023/12/11 00:15:49;;;;;;;1.73;1.70;;;;;;;3.91;100.00;99650.97;5073280;28;20200;-73
2023/12/11 00:18:16;;;;;;;1.53;1.53;;;;;;;3.98;100.00;99643.34;5073474;28;20216;-73
2023/12/11 00:20:43;;;;;;;1.30;1.30;;;;;;;4.05;100.00;99642.50;5074451;28;20208;-73
2023/12/11 00:23:10;;;;;;;1.03;1.03;;;;;;;4.04;100.00;99638.28;5073110;28;20200;-73
2023/12/11 00:25:37;;;;;;;1.20;1.20;;;;;;;4.01;100.00;99630.66;5073095;28;20211;-73
2023/12/11 00:28:05;;;;;;;1.60;1.50;;;;;;;3.95;100.00;99623.06;5073335;28;20208;-73
2023/12/11 00:30:32;;;;;;;0.90;0.90;;;;;;;4.03;100.00;99639.13;5073179;28;20200;-73
2023/12/11 00:32:58;;;;;;;1.53;1.53;;;;;;;4.05;100.00;99639.13;5074225;28;20207;-73
2023/12/11 00:35:25;;;;;;;0.90;0.90;;;;;;;4.07;100.00;99638.25;5073035;28;20588;-73
2023/12/11 00:37:52;;;;;;;1.50;1.50;;;;;;;4.07;100.00;99630.66;5072638;28;20247;-73
2023/12/11 00:40:19;;;;;;;1.67;1.67;;;;;;;4.07;100.00;99625.59;5072834;28;20227;-73
2023/12/11 00:42:46;;;;;;;1.97;1.97;;;;;;;4.09;100.00;99626.44;5072869;28;20196;-73
2023/12/11 00:45:14;;;;;;;0.83;0.83;;;;;;;4.00;100.00;99606.16;5072806;28;20203;-73
2023/12/11 00:47:41;;;;;;;0.80;0.80;;;;;;;4.10;100.00;99622.22;5074649;28;20237;-73
2023/12/11 00:50:08;;;;;;;1.07;1.07;;;;;;;4.02;100.00;99609.53;5075124;28;20204;-74
2023/12/11 00:52:35;;;;;;;2.20;2.20;;;;;;;4.08;100.00;99619.69;5072753;28;20553;-74
2023/12/11 00:55:02;;;;;;;1.40;1.40;;;;;;;4.06;100.00;99621.38;5072611;28;20211;-73
2023/12/11 00:57:29;;;;;;;1.97;1.90;;;;;;;4.06;100.00;99625.59;5073019;28;20196;-74
2023/12/11 00:59:56;;;;;;;1.17;1.17;;;;;;;3.96;100.00;99611.22;5073774;28;20216;-73
2023/12/11 01:02:24;;;;;;;2.27;1.10;;;;;;;3.95;100.00;99617.13;5072151;28;20565;-73
2023/12/11 01:04:50;;;;;;;1.00;1.00;;;;;;;3.90;100.00;99603.63;5072386;28;20207;-73
2023/12/11 01:07:17;;;;;;;1.20;1.20;;;;;;;3.90;100.00;99599.41;5072124;28;20572;-73
2023/12/11 01:09:44;;;;;;;2.00;1.30;;;;;;;3.92;100.00;99601.91;5072396;28;20200;-73
2023/12/11 01:12:11;;;;;;;0.93;0.93;;;;;;;3.92;100.00;99592.63;5072425;28;20200;-73
2023/12/11 01:14:38;;;;;;;1.10;1.10;;;;;;;3.87;100.00;99579.13;5072346;28;20196;-73
2023/12/11 01:17:05;;;;;;;1.47;1.47;;;;;;;3.97;100.00;99592.63;5073366;28;20192;-73
2023/12/11 01:19:33;;;;;;;0.60;0.60;;;;;;;3.94;100.00;99580.78;5072325;28;20219;-73
2023/12/11 01:22:00;;;;;;;0.70;0.70;;;;;;;3.98;100.00;99571.47;5070870;28;20208;-73
2023/12/11 01:24:26;;;;;;;1.40;1.40;;;;;;;3.98;100.00;99566.41;5072141;28;20203;-73
2023/12/11 01:26:55;;;;;;;2.40;2.30;;;;;;;3.98;100.00;99571.47;5072210;28;20203;-73
2023/12/11 01:29:21;;;;;;;0.90;0.90;;;;;;;3.96;100.00;99568.97;5073276;28;20200;-73
2023/12/11 01:31:48;;;;;;;1.50;1.40;;;;;;;3.87;100.00;99553.75;5072117;28;20580;-74
2023/12/11 01:34:16;;;;;;;1.87;1.87;;;;;;;3.94;100.00;99557.13;5072768;28;20717;-73
2023/12/11 01:36:48;;;;;;;1.13;1.13;;;;;;;3.91;100.00;99555.44;5072347;28;20255;-73
2023/12/11 01:39:15;;;;;;;1.17;1.17;;;;;;;3.92;100.00;99552.06;5071748;28;20721;-73
2023/12/11 01:41:42;;;;;;;1.73;1.73;;;;;;;3.92;100.00;99549.53;5072576;28;20587;-73
2023/12/11 01:44:09;;;;;;;0.60;0.60;;;;;;;3.92;100.00;99549.53;5071984;28;20200;-73
2023/12/11 01:46:36;;;;;;;1.23;1.23;;;;;;;3.91;100.00;99560.50;5071817;28;20204;-73
2023/12/11 01:49:02;;;;;;;1.73;1.73;;;;;;;3.88;100.00;99565.56;5071601;28;20632;-73
2023/12/11 01:51:30;;;;;;;0.70;0.70;;;;;;;3.85;100.00;99552.91;5071677;28;20204;-73
2023/12/11 01:53:58;;;;;;;1.10;1.10;;;;;;;3.86;100.00;99552.06;5071083;28;20255;-73
2023/12/11 01:56:26;;;;;;;1.37;1.37;;;;;;;3.82;100.00;99550.38;5071254;28;20548;-73
2023/12/11 01:58:53;;;;;;;1.13;1.13;;;;;;;3.82;100.00;99560.50;5069766;28;20683;-74
2023/12/11 02:01:23;;;;;;;0.90;0.90;;;;;;;3.79;100.00;99555.44;5070098;28;20245;-74
2023/12/11 02:03:50;;;;;;;0.80;0.80;;;;;;;3.78;100.00;99563.06;5071496;28;20297;-74
2023/12/11 02:06:17;;;;;;;1.23;1.23;;;;;;;3.74;100.00;99554.63;5071442;28;20225;-73
2023/12/11 02:08:45;;;;;;;2.20;2.10;;;;;;;3.77;100.00;99566.44;5072676;28;20668;-73
2023/12/11 02:11:14;;;;;;;2.23;2.23;;;;;;;3.70;100.00;99558.00;5071193;28;20584;-73
2023/12/11 02:13:41;;;;;;;1.63;1.63;;;;;;;3.63;100.00;99552.06;5070869;28;20199;-73
2023/12/11 02:16:08;;;;;;;3.60;1.37;;;;;;;3.69;100.00;99567.28;5071317;28;20210;-73
2023/12/11 02:18:35;;;;;;;0.90;0.90;;;;;;;3.68;100.00;99574.91;5070892;28;20195;-73
2023/12/11 02:21:02;;;;;;;2.73;1.80;;;;;;;3.65;100.00;99574.91;5071244;28;20610;-73
2023/12/11 02:23:39;;;;;;;1.40;1.40;;;;;;;3.62;100.00;99578.25;5074601;28;20199;-73
2023/12/11 02:26:11;;;;;;;0.70;0.70;;;;;;;3.64;100.00;99576.59;5073984;28;20196;-73
2023/12/11 02:28:38;;;;;;;1.10;1.10;;;;;;;3.64;100.00;99570.66;5075229;28;20228;-73
2023/12/11 02:31:06;;;;;;;1.23;1.23;;;;;;;3.61;100.00;99571.53;5075038;28;20691;-73
2023/12/11 02:33:33;;;;;;;1.33;1.23;;;;;;;3.64;100.00;99575.72;5070857;28;20203;-69
2023/12/11 02:35:59;;;;;;;2.27;2.27;;;;;;;3.62;100.00;99573.19;5072098;28;20207;-69
2023/12/11 02:38:28;;;;;;;0.80;0.80;;;;;;;3.62;100.00;99570.66;5070639;28;20224;-69
2023/12/11 02:40:55;;;;;;;1.13;1.13;;;;;;;3.61;100.00;99570.66;5070353;28;20700;-69
2023/12/11 02:43:23;;;;;;;1.40;1.40;;;;;;;3.58;100.00;99555.47;5070367;28;20694;-69
2023/12/11 02:45:52;;;;;;;2.83;2.73;;;;;;;3.56;100.00;99562.19;5072409;28;20656;-69
2023/12/11 02:48:20;;;;;;;1.30;1.30;;;;;;;3.57;100.00;99563.91;5071120;28;20195;-69
2023/12/11 02:50:47;;;;;;;1.30;1.30;;;;;;;3.56;100.00;99562.19;5072308;28;20211;-69
2023/12/11 02:53:14;;;;;;;0.90;0.90;;;;;;;3.57;100.00;99563.91;5070669;28;20203;-69
2023/12/11 02:55:43;;;;;;;1.20;1.20;;;;;;;3.58;100.00;99568.13;5070532;28;20204;-69
2023/12/11 02:58:10;;;;;;;1.00;1.00;;;;;;;3.57;100.00;99568.97;5071259;28;20192;-69
2023/12/11 03:00:38;;;;;;;2.07;1.37;;;;;;;3.55;100.00;99583.34;5070677;28;20223;-69
2023/12/11 03:03:05;;;;;;;1.33;1.33;;;;;;;3.54;100.00;99576.56;5068194;28;20200;-69
2023/12/11 03:05:32;;;;;;;1.87;1.87;;;;;;;3.53;100.00;99569.81;5071924;28;20576;-68
2023/12/11 03:07:59;;;;;;;3.00;3.00;;;;;;;3.53;100.00;99580.78;5070899;28;20226;-68
2023/12/11 03:10:26;;;;;;;3.03;2.80;;;;;;;3.52;100.00;99576.56;5067737;28;20581;-68
2023/12/11 03:12:53;;;;;;;1.43;1.43;;;;;;;3.51;100.00;99584.16;5070163;28;20204;-68
2023/12/11 03:15:20;;;;;;;1.70;1.70;;;;;;;3.49;100.00;99580.81;5070487;28;20200;-69
2023/12/11 03:17:49;;;;;;;1.00;0.83;;;;;;;3.46;100.00;99581.63;5074406;28;20195;-69
2023/12/11 03:20:16;;;;;;;1.70;1.70;;;;;;;3.45;100.00;99569.81;5070373;28;20220;-68
2023/12/11 03:22:43;;;;;;;1.27;1.27;;;;;;;3.44;100.00;99578.25;5070072;28;20211;-69
2023/12/11 03:25:09;;;;;;;0.80;0.80;;;;;;;3.44;100.00;99578.25;5070150;28;20197;-69
2023/12/11 03:27:36;;;;;;;1.97;1.97;;;;;;;3.44;100.00;99577.41;5077618;28;20199;-68
2023/12/11 03:30:03;;;;;;;1.30;1.30;;;;;;;3.42;100.00;99579.94;5074239;28;20703;-68
2023/12/11 03:32:30;;;;;;;1.10;1.10;;;;;;;3.42;100.00;99584.16;5074439;28;20290;-68
2023/12/11 03:34:59;;;;;;;1.23;1.23;;;;;;;3.37;100.00;99589.22;5076684;28;20207;-68
2023/12/11 03:37:25;;;;;;;2.70;0.83;;;;;;;3.33;100.00;99589.22;5073990;28;20224;-68
2023/12/11 03:39:52;;;;;;;0.90;0.90;;;;;;;3.24;100.00;99574.84;5074922;28;20212;-68
2023/12/11 03:42:19;;;;;;;2.00;2.00;;;;;;;3.18;100.00;99577.34;5074178;28;20200;-68
2023/12/11 03:44:46;;;;;;;2.00;1.90;;;;;;;3.13;100.00;99566.38;5074320;28;20195;-68
2023/12/11 03:47:13;;;;;;;3.57;2.37;;;;;;;3.12;100.00;99563.00;5077689;28;20195;-68
2023/12/11 03:49:40;;;;;;;0.70;0.70;;;;;;;3.14;100.00;99568.06;5074226;28;20683;-68
2023/12/11 03:52:10;;;;;;;1.17;1.17;;;;;;;3.11;100.00;99568.06;5073485;28;20672;-68
2023/12/11 03:54:37;;;;;;;1.30;1.20;;;;;;;3.11;100.00;99568.91;5071524;28;20676;-68
2023/12/11 03:57:07;;;;;;;1.70;1.70;;;;;;;3.10;100.00;99569.72;5072813;28;20199;-68
2023/12/11 03:59:36;;;;;;;1.33;1.33;;;;;;;3.10;100.00;99567.19;5073562;28;20212;-68
2023/12/11 04:02:05;;;;;;;1.40;1.40;;;;;;;3.11;100.00;99573.97;5069140;28;20200;-68
2023/12/11 04:04:32;;;;;;;2.27;1.67;;;;;;;3.13;100.00;99572.28;5073703;28;20196;-68
2023/12/11 04:06:59;;;;;;;1.00;1.00;;;;;;;3.15;100.00;99579.88;5073826;28;20290;-68
2023/12/11 04:09:27;;;;;;;1.90;1.90;;;;;;;3.13;100.00;99577.34;5073665;28;20202;-68
2023/12/11 04:11:54;;;;;;;1.57;1.57;;;;;;;3.15;100.00;99585.81;5073329;28;20265;-68
2023/12/11 04:14:21;;;;;;;1.33;1.33;;;;;;;3.15;100.00;99590.88;5073600;28;20408;-67
2023/12/11 04:16:48;;;;;;;1.43;1.33;;;;;;;3.14;100.00;99589.16;5073214;28;20211;-68
2023/12/11 04:19:15;;;;;;;1.87;1.87;;;;;;;3.13;100.00;99587.47;5075922;28;20254;-68
2023/12/11 04:21:42;;;;;;;1.13;1.13;;;;;;;3.06;100.00;99584.94;5073326;28;20203;-68
2023/12/11 04:24:09;;;;;;;1.00;1.00;;;;;;;3.10;100.00;99606.91;5073395;28;20196;-67
2023/12/11 04:26:58;;;;;;;1.73;1.73;;;;;;;3.11;100.00;99609.41;5073974;28;20196;-68
2023/12/11 04:29:25;;;;;;;1.17;1.17;;;;;;;3.11;100.00;99614.50;5071929;28;20204;-68
2023/12/11 04:31:52;;;;;;;1.87;1.77;;;;;;;3.09;100.00;99610.28;5073149;28;20200;-68
2023/12/11 04:34:18;;;;;;;1.30;1.30;;;;;;;3.09;100.00;99616.19;5073141;28;20203;-67
2023/12/11 04:36:46;;;;;;;0.87;0.87;;;;;;;3.07;100.00;99620.38;5072110;28;20714;-68
2023/12/11 04:39:13;;;;;;;1.63;1.63;;;;;;;3.05;100.00;99629.66;5073026;28;20200;-67
2023/12/11 05:18:14;;;;;;;0.70;0.70;;;;;;;2.79;100.00;99613.53;4951538;29;20219;-68
2023/12/11 06:58:22;;;;;;;2.13;2.13;;;;;;;2.61;100.00;99646.34;5068563;28;20250;-62
2023/12/11 07:00:51;;;;;;;0.83;0.83;;;;;;;2.64;100.00;99641.31;5069128;28;20216;-62
2023/12/11 07:03:18;;;;;;;1.47;1.47;;;;;;;2.63;100.00;99634.53;5080712;28;20208;-68
2023/12/11 07:05:45;;;;;;;2.23;2.23;;;;;;;2.73;100.00;99651.47;5077113;28;20199;-68
2023/12/11 07:08:12;;;;;;;3.07;2.97;;;;;;;2.77;100.00;99649.81;5069195;28;20683;-68
2023/12/11 07:10:40;;;;;;;4.50;4.30;;;;;;;2.81;100.00;99649.81;5070631;28;20706;-68
2023/12/11 07:13:07;;;;;;;3.57;3.30;;;;;;;2.86;100.00;99655.75;5069145;28;20200;-68
2023/12/11 07:15:35;;;;;;;3.43;3.13;;;;;;;2.92;100.00;99653.25;5069950;28;20671;-68
2023/12/11 07:18:02;;;;;;;5.87;1.63;;;;;;;2.98;100.00;99663.41;5069805;28;20200;-68
2023/12/11 07:20:33;;;;;;;2.10;2.00;;;;;;;2.95;100.00;99652.41;5070367;28;20714;-68
2023/12/11 07:23:00;;;;;;;1.80;1.70;;;;;;;2.97;100.00;99649.03;5069350;28;20605;-68
2023/12/11 07:25:27;;;;;;;2.17;2.17;;;;;;;3.03;100.00;99646.56;5070087;28;20219;-68
2023/12/11 07:27:53;;;;;;;2.03;1.93;;;;;;;3.10;100.00;99648.25;5067478;28;20204;-68
2023/12/11 07:30:20;;;;;;;1.47;1.47;;;;;;;3.21;100.00;99652.50;5065100;28;20199;-68
2023/12/11 07:32:48;;;;;;;3.03;2.93;;;;;;;3.24;100.00;99655.03;5069593;28;20238;-68
2023/12/11 07:35:15;;;;;;;7.37;3.37;;;;;;;3.32;100.00;99656.78;5073028;28;20208;-67
2023/12/11 07:37:42;;;;;;;2.17;2.17;;;;;;;3.38;100.00;99648.34;5070931;28;20691;-68
2023/12/11 07:40:11;;;;;;;1.80;1.67;;;;;;;3.48;100.00;99639.94;5069719;28;20680;-68
2023/12/11 07:42:38;;;;;;;2.03;2.03;;;;;;;3.53;100.00;99644.16;5073331;28;20200;-68
2023/12/11 07:45:06;;;;;;;1.93;1.83;;;;;;;3.42;100.00;99627.25;5066992;28;20231;-67
2023/12/11 07:47:33;;;;;;;2.27;2.27;;;;;;;3.57;100.00;99650.06;5071290;28;20207;-68
2023/12/11 07:50:02;;;;;;;3.13;2.00;;;;;;;3.54;100.00;99650.06;5072287;28;20679;-68
2023/12/11 07:52:30;;;;;;;1.20;1.20;;;;;;;3.59;100.00;99648.38;5072510;28;20561;-69
2023/12/11 07:54:57;;;;;;;1.83;1.80;;;;;;;3.69;100.00;99655.16;5071836;28;20203;-68
2023/12/11 07:57:25;;;;;;;2.70;2.60;;;;;;;3.67;100.00;99631.50;5068258;28;20676;-69
2023/12/11 07:59:51;;;;;;;1.10;1.10;;;;;;;3.83;100.00;99650.97;5069659;28;20195;-69
2023/12/11 08:02:18;;;;;;;2.03;1.93;;;;;;;3.95;100.00;99653.50;5070154;28;20208;-69
2023/12/11 08:04:45;;;;;;;1.00;1.00;;;;;;;4.03;100.00;99646.75;5069036;28;20210;-68
2023/12/11 08:07:14;;;;;;;2.17;2.13;;;;;;;3.81;100.00;99604.47;5068012;28;20572;-68
2023/12/11 08:09:41;;;;;;;2.40;2.20;;;;;;;4.18;100.00;99659.41;5069045;28;20204;-69
2023/12/11 08:12:08;;;;;;;1.23;1.23;;;;;;;4.19;100.00;99658.59;5070545;28;20196;-69
2023/12/11 08:14:35;;;;;;;0.80;0.80;;;;;;;4.13;100.00;99628.16;5072592;28;20200;-69
2023/12/11 08:17:02;;;;;;;1.90;1.90;;;;;;;4.34;100.00;99655.16;5071783;28;20572;-69
2023/12/11 08:19:28;;;;;;;1.63;1.63;;;;;;;4.37;100.00;99651.78;5071840;28;20207;-69
2023/12/11 08:21:55;;;;;;;4.23;1.57;;;;;;;4.40;100.00;99661.91;5078952;28;20702;-69
2023/12/11 08:24:23;;;;;;;1.43;1.43;;;;;;;4.38;100.00;99656.88;5077872;28;20199;-69
2023/12/11 08:26:50;;;;;;;4.40;2.50;;;;;;;4.38;100.00;99653.47;5065565;28;20455;-68
2023/12/11 08:29:18;;;;;;;1.50;1.50;;;;;;;4.29;100.00;99649.28;5070289;28;20204;-68
2023/12/11 08:31:45;;;;;;;2.13;2.03;;;;;;;4.36;100.00;99660.25;5069775;28;20286;-68
2023/12/11 08:34:11;;;;;;;1.80;1.80;;;;;;;4.24;100.00;99656.88;5070284;28;20203;-68
2023/12/11 08:36:41;;;;;;;2.50;2.30;;;;;;;4.17;100.00;99646.72;5068781;28;20219;-68
2023/12/11 08:39:08;;;;;;;2.67;2.57;;;;;;;4.14;100.00;99647.56;5069804;28;20687;-69
2023/12/11 08:41:36;;;;;;;2.20;2.20;;;;;;;4.01;100.00;99632.34;5071067;28;20633;-68
2023/12/11 08:44:05;;;;;;;1.47;1.47;;;;;;;4.22;100.00;99645.88;5071850;28;20233;-69
2023/12/11 08:46:32;;;;;;;1.87;1.87;;;;;;;4.39;100.00;99650.09;5071864;28;20254;-68
2023/12/11 08:48:59;;;;;;;1.17;1.17;;;;;;;4.28;100.00;99637.41;5072008;28;20200;-69
2023/12/11 08:51:26;;;;;;;1.23;1.23;;;;;;;4.31;100.00;99645.03;5070715;28;20228;-68
2023/12/11 08:53:53;;;;;;;1.63;1.53;;;;;;;4.48;100.00;99638.25;5071915;28;20196;-68
2023/12/11 08:56:20;;;;;;;2.03;1.83;;;;;;;4.56;100.00;99630.59;5071965;28;20219;-68
2023/12/11 08:58:49;;;;;;;2.40;2.33;;;;;;;4.70;100.00;99628.88;5070871;28;20214;-68
2023/12/11 09:01:18;;;;;;;2.13;2.13;;;;;;;4.86;100.00;99637.28;5071992;28;20595;-69
2023/12/11 09:03:45;;;;;;;2.13;2.03;;;;;;;4.87;100.00;99623.75;5072042;28;20719;-68
2023/12/11 09:06:13;;;;;;;2.47;2.37;;;;;;;4.96;100.00;99629.63;5067959;28;20196;-68
2023/12/11 09:08:40;;;;;;;1.40;1.40;;;;;;;4.81;100.00;99629.69;5068357;28;20228;-68
2023/12/11 09:11:07;;;;;;;3.17;2.93;;;;;;;4.78;100.00;99629.69;5070495;28;20196;-68
2023/12/11 09:13:33;;;;;;;1.77;1.37;;;;;;;4.88;100.00;99625.44;5070647;28;20214;-69
2023/12/11 09:16:02;;;;;;;1.23;1.23;;;;;;;4.89;100.00;99616.94;5071167;28;20200;-69
2023/12/11 09:18:29;;;;;;;1.80;1.80;;;;;;;4.94;100.00;99621.19;5066160;28;20691;-69
2023/12/11 09:20:56;;;;;;;2.67;2.47;;;;;;;4.99;100.00;99624.53;5070892;28;20227;-68
2023/12/11 09:23:23;;;;;;;2.53;2.43;;;;;;;5.09;100.00;99610.94;5068771;28;20201;-69
2023/12/11 09:25:49;;;;;;;2.43;2.23;;;;;;;5.04;100.00;99612.63;5065936;28;20215;-69
2023/12/11 09:28:22;;;;;;;2.03;1.93;;;;;;;4.97;100.00;99605.91;5067522;28;20217;-69
2023/12/11 09:30:49;;;;;;;3.03;2.93;;;;;;;4.92;100.00;99605.06;5065762;28;20207;-69
2023/12/11 09:33:17;;;;;;;2.70;1.50;;;;;;;4.98;100.00;99602.50;5066257;28;20211;-69
2023/12/11 09:35:44;;;;;;;1.80;1.80;;;;;;;5.10;100.00;99597.38;5066722;28;20207;-69
2023/12/11 09:38:11;;;;;;;2.43;2.33;;;;;;;5.16;100.00;99589.72;5069569;28;20200;-69
2023/12/11 09:40:38;;;;;;;3.43;2.83;;;;;;;5.33;100.00;99589.63;5069159;28;20200;-69
2023/12/11 09:43:05;;;;;;;3.10;2.87;;;;;;;5.42;100.00;99586.19;5073777;28;20607;-69
2023/12/11 09:45:33;;;;;;;1.80;1.70;;;;;;;5.33;100.00;99583.72;5073507;28;20710;-69
2023/12/11 09:47:59;;;;;;;3.50;1.93;;;;;;;5.34;100.00;99575.22;5069205;28;20196;-69
2023/12/11 09:50:28;;;;;;;2.70;2.50;;;;;;;5.40;100.00;99563.31;5068249;28;20576;-68
2023/12/11 09:52:57;;;;;;;1.63;1.63;;;;;;;5.50;100.00;99566.63;5072718;28;20204;-69
2023/12/11 09:55:23;;;;;;;1.83;1.83;;;;;;;5.55;100.00;99565.75;5074883;28;20199;-69
2023/12/11 09:57:51;;;;;;;4.67;3.97;;;;;;;5.70;100.00;99569.88;5067588;28;20196;-69
2023/12/11 10:00:19;;;;;;;4.40;1.70;;;;;;;5.70;100.00;99575.81;5064242;28;20199;-69
2023/12/11 10:02:51;;;;;;;2.87;2.67;;;;;;;5.80;100.00;99561.31;5068649;28;20231;-68
2023/12/11 10:05:24;;;;;;;2.27;2.00;;;;;;;5.75;100.00;99568.16;5066242;28;20238;-69
2023/12/11 10:07:52;;;;;;;5.57;2.27;;;;;;;5.80;100.00;99562.16;5058611;28;20200;-68
2023/12/11 10:10:22;;;;;;;3.53;3.00;;;;;;;5.98;100.00;99562.91;5067770;28;20200;-69
2023/12/11 10:12:49;;;;;;;11.37;2.73;;;;;;;6.04;100.00;99566.19;5068645;28;20234;-68
2023/12/11 10:15:21;;;;;;;2.53;2.43;;;;;;;6.10;100.00;99561.06;5069971;28;20203;-69
2023/12/11 10:18:03;;;;;;;2.67;2.57;;;;;;;6.20;100.00;99562.66;5068869;28;20208;-68
2023/12/11 10:20:30;;;;;;;5.03;2.40;;;;;;;6.30;100.00;99554.06;5064458;28;20664;-69
2023/12/11 10:22:59;;;;;;;4.70;3.33;;;;;;;6.39;100.00;99552.28;5069332;28;20219;-68
2023/12/11 10:25:27;;;;;;;4.37;2.73;;;;;;;6.46;100.00;99534.38;5071225;28;20599;-69
2023/12/11 10:28:05;;;;;;;3.87;3.30;;;;;;;6.59;100.00;99545.28;5063281;28;20589;-68
2023/12/11 10:30:32;;;;;;;4.70;2.80;;;;;;;6.69;100.00;99539.19;5062997;28;20302;-69
2023/12/11 10:33:02;;;;;;;5.70;2.83;;;;;;;6.78;100.00;99531.44;5057600;28;20203;-68
2023/12/11 10:35:29;;;;;;;14.50;8.63;;;;;;;6.85;100.00;99528.78;5065661;28;20456;-66
2023/12/11 10:39:05;;;;;;;6.10;3.70;;;;;;;7.13;100.00;99513.13;5068121;28;20219;-66
2023/12/11 10:42:20;;;;;;;6.57;3.47;;;;;;;7.28;100.00;99508.63;5069079;28;20223;-66
2023/12/11 10:44:49;;;;;;;6.17;2.60;;;;;;;7.23;100.00;99500.22;4989427;28;20245;-66
2023/12/11 10:47:22;;;;;;;10.83;3.13;;;;;;;7.25;100.00;99488.28;5017261;28;20297;-66
2023/12/11 10:49:49;;;;;;;3.73;3.40;;;;;;;7.40;100.00;99490.59;5027967;28;20259;-66
2023/12/11 10:52:16;;;;;;;9.90;5.30;;;;;;;7.48;100.00;99474.31;5029519;28;21587;-66
2023/12/11 10:54:43;;;;;;;4.40;3.27;;;;;;;7.61;100.00;99483.44;5029850;28;20205;-67
2023/12/11 10:57:14;;;;;;;2.37;2.27;;;;;;;7.59;100.00;99475.00;5029956;28;20229;-66
2023/12/11 10:59:41;;;;;;;12.27;5.23;;;;;;;7.70;100.00;99475.63;5030829;28;20669;-66
2023/12/11 11:02:14;;;;;;;3.67;3.47;;;;;;;7.72;100.00;99479.03;5031026;28;20224;-66
2023/12/11 11:04:43;;;;;;;10.47;3.80;;;;;;;7.79;100.00;99475.47;5031198;28;20208;-66
2023/12/11 11:07:17;;;;;;;6.77;4.07;;;;;;;7.86;100.00;99466.84;5030408;28;20259;-66
2023/12/11 11:09:55;;;;;;;7.40;2.47;;;;;;;7.95;100.00;99476.06;5029566;28;20212;-66
2023/12/11 11:12:31;;;;;;;5.40;2.70;;;;;;;8.07;100.00;99466.47;5026281;28;20263;-66
2023/12/11 11:14:59;;;;;;;5.37;3.13;;;;;;;8.26;100.00;99467.78;5028131;28;20263;-66
2023/12/11 11:17:59;;;;;;;4.27;2.63;;;;;;;8.29;100.00;99472.88;5031153;28;20239;-66
2023/12/11 11:20:26;;;;;;;4.20;3.03;;;;;;;8.29;100.00;99452.44;5028480;28;20292;-67
2023/12/11 11:22:53;;;;;;;4.43;3.47;;;;;;;8.39;100.00;99465.84;5028507;28;20759;-65
2023/12/11 11:25:32;;;;;;;7.97;4.60;;;;;;;8.43;100.00;99470.03;5031079;28;20259;-66
2023/12/11 11:27:59;;;;;;;6.80;3.37;;;;;;;8.36;100.00;99448.88;5028832;28;20216;-66
2023/12/11 11:30:51;;;;;;;3.83;3.17;;;;;;;8.50;100.00;99465.66;5026788;28;20732;-65
2023/12/11 11:33:20;;;;;;;17.47;4.30;;;;;;;8.56;100.00;99460.41;5029379;28;20252;-66
2023/12/11 11:35:56;;;;;;;5.27;2.63;;;;;;;8.58;100.00;99445.88;5029614;28;20293;-66
2023/12/11 11:38:51;;;;;;;13.53;5.23;;;;;;;8.77;100.00;99454.81;5028633;28;20204;-66
2023/12/11 11:41:22;;;;;;;7.97;3.97;;;;;;;8.81;100.00;99452.19;5027854;28;20198;-66
2023/12/11 11:44:05;;;;;;;4.93;4.63;;;;;;;8.79;100.00;99442.84;5045580;28;20242;-64
2023/12/11 11:46:55;;;;;;;5.07;3.17;;;;;;;8.60;100.00;99431.34;5067808;28;20672;-66
2023/12/11 11:49:32;;;;;;;7.43;4.87;;;;;;;8.73;100.00;99453.19;5071669;28;20585;-66
2023/12/11 11:52:00;;;;;;;6.03;3.67;;;;;;;8.83;100.00;99454.69;5071530;28;20716;-67
2023/12/11 11:54:32;;;;;;;4.17;3.77;;;;;;;8.87;100.00;99449.47;5072326;28;20204;-66
2023/12/11 11:56:59;;;;;;;2.83;2.57;;;;;;;8.95;100.00;99449.28;5074077;28;20211;-67
2023/12/11 11:59:26;;;;;;;6.87;3.90;;;;;;;8.95;100.00;99441.63;5072668;28;20249;-65
2023/12/11 12:01:54;;;;;;;4.27;4.07;;;;;;;8.85;100.00;99442.72;5072017;28;20220;-65
2023/12/11 12:04:34;;;;;;;10.17;5.73;;;;;;;8.90;100.00;99438.34;5072287;28;20208;-67
2023/12/11 12:07:03;;;;;;;5.43;4.90;;;;;;;8.86;100.00;99444.38;5073166;28;20207;-65
2023/12/11 12:09:32;;;;;;;7.47;4.53;;;;;;;8.90;100.00;99440.88;5073767;28;20663;-66
2023/12/11 12:12:00;;;;;;;4.37;3.47;;;;;;;8.94;100.00;99438.25;5073030;28;20238;-66
2023/12/11 12:14:27;;;;;;;4.93;4.47;;;;;;;9.01;100.00;99445.78;5072895;28;20265;-66
2023/12/11 12:16:56;;;;;;;4.63;4.07;;;;;;;8.98;100.00;99444.13;5073479;28;20257;-72
2023/12/11 12:19:31;;;;;;;11.73;8.53;;;;;;;8.93;100.00;99440.81;5072468;28;20204;-65
2023/12/11 12:21:59;;;;;;;4.97;4.00;;;;;;;8.79;100.00;99419.81;5072880;28;20221;-66
2023/12/11 12:24:26;;;;;;;9.20;5.80;;;;;;;8.86;100.00;99429.03;5068505;28;20295;-66
2023/12/11 12:26:56;;;;;;;7.40;4.33;;;;;;;8.91;100.00;99427.25;5069865;28;20204;-67
2023/12/11 12:29:23;;;;;;;7.70;4.10;;;;;;;8.83;100.00;99413.78;5069466;28;20262;-66
2023/12/11 12:31:50;;;;;;;3.60;3.40;;;;;;;8.88;100.00;99417.94;5066973;28;20250;-66
2023/12/11 12:34:18;;;;;;;13.07;4.83;;;;;;;8.86;100.00;99413.72;5065565;28;20254;-66
2023/12/11 12:36:46;;;;;;;4.63;4.20;;;;;;;8.87;100.00;99415.41;5065511;28;20203;-66
2023/12/11 12:39:14;;;;;;;6.67;4.20;;;;;;;8.89;100.00;99418.75;5067578;28;20216;-66
2023/12/11 12:41:42;;;;;;;3.73;3.43;;;;;;;8.83;100.00;99403.56;5063014;28;20266;-66
2023/12/11 12:44:09;;;;;;;5.20;3.90;;;;;;;8.88;100.00;99407.72;5063003;28;20228;-66
2023/12/11 12:46:39;;;;;;;6.93;5.00;;;;;;;8.85;100.00;99392.41;5061287;28;20200;-67
2023/12/11 12:49:10;;;;;;;4.23;4.00;;;;;;;8.88;100.00;99396.63;5069013;28;20852;-66
2023/12/11 12:51:48;;;;;;;5.33;4.23;;;;;;;8.95;100.00;99382.81;5070594;28;20204;-65
2023/12/11 12:54:16;;;;;;;6.37;4.50;;;;;;;8.95;100.00;99382.81;5074604;28;20203;-66
2023/12/11 12:56:44;;;;;;;5.23;4.47;;;;;;;8.95;100.00;99372.59;5070715;28;20211;-65
2023/12/11 12:59:11;;;;;;;9.10;5.03;;;;;;;8.94;100.00;99370.94;5073100;28;20202;-66
2023/12/11 13:01:39;;;;;;;6.40;4.47;;;;;;;8.81;100.00;99339.72;5071163;28;20292;-66
2023/12/11 13:04:06;;;;;;;4.77;4.33;;;;;;;8.79;100.00;99340.59;5069933;28;20291;-65
2023/12/11 13:06:33;;;;;;;5.57;5.00;;;;;;;8.73;100.00;99338.19;5072291;28;20663;-64
2023/12/11 13:09:01;;;;;;;6.07;3.73;;;;;;;8.80;100.00;99342.28;5072217;28;20196;-66
2023/12/11 13:11:41;;;;;;;5.10;4.87;;;;;;;8.85;100.00;99336.19;5069819;28;20204;-66
2023/12/11 13:14:09;;;;;;;5.37;3.40;;;;;;;8.75;100.00;99316.00;5070283;28;20222;-66
2023/12/11 13:16:36;;;;;;;16.73;3.80;;;;;;;8.76;100.00;99302.34;5068999;28;20210;-67
2023/12/11 13:19:03;;;;;;;4.23;4.07;;;;;;;8.71;100.00;99309.28;5068332;28;20205;-65
2023/12/11 13:21:29;;;;;;;8.17;4.27;;;;;;;8.72;100.00;99305.88;5074401;28;20257;-67
2023/12/11 13:23:56;;;;;;;6.57;4.03;;;;;;;8.71;100.00;99311.84;5068823;28;20219;-65
2023/12/11 13:26:25;;;;;;;15.37;8.17;;;;;;;8.68;100.00;99296.59;5072823;28;20227;-65
2023/12/11 13:28:51;;;;;;;19.07;2.73;;;;;;;8.66;100.00;99303.47;5065087;28;20221;-66
2023/12/11 13:31:18;;;;;;;6.67;4.67;;;;;;;8.65;100.00;99306.88;5069061;28;20191;-67
2023/12/11 13:33:45;;;;;;;5.97;5.47;;;;;;;8.65;100.00;99306.88;5067644;28;20208;-66
2023/12/11 13:36:13;;;;;;;12.07;3.60;;;;;;;8.72;100.00;99310.97;5070041;28;20636;-66
2023/12/11 13:38:40;;;;;;;6.87;4.53;;;;;;;8.76;100.00;99308.28;5077104;28;20676;-64
2023/12/11 13:41:07;;;;;;;4.20;3.93;;;;;;;8.72;100.00;99304.16;5069804;28;20262;-65
2023/12/11 13:43:36;;;;;;;14.47;3.10;;;;;;;8.66;100.00;99299.16;5070805;28;20232;-65
2023/12/11 13:46:03;;;;;;;9.50;4.67;;;;;;;8.65;100.00;99299.22;5068828;28;20646;-65
2023/12/11 13:48:30;;;;;;;6.77;3.70;;;;;;;8.62;100.00;99296.75;5076123;28;20610;-65
2023/12/11 13:51:01;;;;;;;6.13;3.07;;;;;;;8.64;100.00;99297.53;5070888;28;20210;-64
2023/12/11 13:53:28;;;;;;;4.37;2.27;;;;;;;8.65;100.00;99297.50;5068169;28;20256;-65
2023/12/11 13:55:54;;;;;;;3.63;3.50;;;;;;;8.59;100.00;99307.03;5071588;28;20192;-65